Time;durP1;ratioP1;P1;durP2;ratioP2;P2;SDS_P1;SDS_P2;PMS_P1;PMS_P2;Temp;Humidity;BMP_temperature;BMP_pressure;BME280_temperature;BME280_humidity;BME280_pressure;Samples;Min_cycle;Max_cycle;Signal;HPM_P1;HPM_P2
2023/09/08 00:00:53;;;;;;;5.60;5.30;;;;;;;15.45;100.00;97285.50;4899488;29;20211;-62
2023/09/08 00:03:21;;;;;;;5.97;5.57;;;;;;;15.39;100.00;97288.22;4902219;29;20268;-63
2023/09/08 00:05:49;;;;;;;6.33;5.93;;;;;;;15.36;100.00;97286.78;4898793;29;20418;-61
2023/09/08 00:08:18;;;;;;;6.47;5.97;;;;;;;15.32;100.00;97288.22;4896330;29;20687;-65
2023/09/08 00:10:46;;;;;;;6.60;6.10;;;;;;;15.33;100.00;97282.66;4779413;29;20758;-56
2023/09/08 00:13:13;;;;;;;6.03;5.63;;;;;;;15.27;100.00;97280.03;4903258;29;20228;-62
2023/09/08 00:15:41;;;;;;;6.17;5.67;;;;;;;15.21;100.00;97279.03;4897691;29;20219;-60
2023/09/08 00:18:09;;;;;;;6.17;5.77;;;;;;;15.20;100.00;97277.41;4900339;29;20219;-65
2023/09/08 00:20:36;;;;;;;6.20;5.80;;;;;;;15.22;100.00;97278.00;4897299;29;20208;-59
2023/09/08 00:23:04;;;;;;;6.07;5.57;;;;;;;15.19;100.00;97273.09;4903441;29;20250;-58
2023/09/08 00:25:34;;;;;;;6.03;5.63;;;;;;;15.17;100.00;97276.00;4891235;29;20303;-67
2023/09/08 00:28:03;;;;;;;5.67;5.27;;;;;;;15.17;100.00;97270.66;4901105;29;20208;-64
2023/09/08 00:30:30;;;;;;;6.37;5.93;;;;;;;15.16;100.00;97271.69;4898659;29;20695;-64
2023/09/08 00:32:58;;;;;;;6.07;5.67;;;;;;;15.11;100.00;97263.47;4901156;29;20319;-58
2023/09/08 00:35:26;;;;;;;7.97;5.60;;;;;;;15.08;100.00;97263.88;4898853;29;20211;-62
2023/09/08 00:37:53;;;;;;;6.10;5.70;;;;;;;15.03;100.00;97269.88;4902412;29;20208;-60
2023/09/08 00:40:21;;;;;;;6.47;5.97;;;;;;;14.97;100.00;97268.06;4777466;29;21923;-64
2023/09/08 00:42:50;;;;;;;6.03;5.63;;;;;;;14.98;100.00;97274.19;4900318;29;21026;-56
2023/09/08 00:45:18;;;;;;;5.40;5.10;;;;;;;14.93;100.00;97276.66;4897094;29;20223;-64
2023/09/08 00:47:45;;;;;;;6.40;6.00;;;;;;;14.92;100.00;97270.50;4900537;29;20204;-64
2023/09/08 00:50:13;;;;;;;6.23;5.73;;;;;;;14.88;100.00;97277.28;4898233;29;20212;-58
2023/09/08 00:52:41;;;;;;;6.13;5.63;;;;;;;14.88;100.00;97271.94;4898923;29;20232;-53
2023/09/08 00:55:09;;;;;;;6.97;6.40;;;;;;;14.88;100.00;97275.44;4894945;29;20831;-64
2023/09/08 00:57:37;;;;;;;6.30;5.80;;;;;;;14.90;100.00;97269.91;4899737;29;20335;-60
2023/09/08 01:00:07;;;;;;;5.83;5.43;;;;;;;14.88;100.00;97267.44;4897893;29;20443;-64
2023/09/08 01:02:35;;;;;;;6.27;5.77;;;;;;;14.90;100.00;97273.41;4897301;29;20330;-60
2023/09/08 01:05:03;;;;;;;6.17;5.70;;;;;;;14.88;100.00;97280.78;4899176;29;20384;-63
2023/09/08 01:07:31;;;;;;;7.57;5.93;;;;;;;14.83;100.00;97279.78;4897398;29;20307;-65
2023/09/08 01:10:03;;;;;;;6.07;5.67;;;;;;;14.72;100.00;97281.22;4896476;29;20232;-62
2023/09/08 01:12:31;;;;;;;7.27;6.60;;;;;;;14.67;100.00;97278.31;4898748;29;20811;-57
2023/09/08 01:14:59;;;;;;;6.60;6.10;;;;;;;14.61;100.00;97283.47;4813849;29;20331;-66
2023/09/08 01:17:28;;;;;;;5.67;5.27;;;;;;;14.64;100.00;97276.06;4874831;29;20748;-63
2023/09/08 01:19:57;;;;;;;7.33;6.60;;;;;;;14.52;100.00;97260.72;4898428;29;20409;-64
2023/09/08 01:22:36;;;;;;;6.80;5.90;;;;;;;14.66;100.00;97277.53;4895995;29;20331;-58
2023/09/08 01:25:10;;;;;;;5.97;5.57;;;;;;;14.66;100.00;97276.69;4893457;29;20291;-64
2023/09/08 01:27:38;;;;;;;6.10;5.70;;;;;;;14.61;100.00;97277.34;4899816;29;20290;-61
2023/09/08 01:30:08;;;;;;;6.30;5.80;;;;;;;14.55;100.00;97276.31;4841227;29;20687;-64
2023/09/08 01:32:36;;;;;;;6.57;6.07;;;;;;;14.51;100.00;97276.91;4898472;29;20232;-63
2023/09/08 01:35:04;;;;;;;6.00;5.47;;;;;;;14.48;100.00;97275.50;4898228;29;20211;-65
2023/09/08 01:37:32;;;;;;;5.63;5.23;;;;;;;14.42;100.00;97268.34;4900861;29;20232;-57
2023/09/08 01:40:00;;;;;;;6.43;5.83;;;;;;;14.33;100.00;97273.03;4898611;29;20785;-61
2023/09/08 01:42:29;;;;;;;6.43;5.90;;;;;;;14.27;100.00;97271.22;4901097;29;20275;-59
2023/09/08 01:44:56;;;;;;;6.37;5.90;;;;;;;14.28;100.00;97260.31;4898179;29;20616;-64
2023/09/08 01:47:24;;;;;;;6.03;5.60;;;;;;;14.21;100.00;97259.50;4901949;29;20660;-59
2023/09/08 01:49:52;;;;;;;6.00;5.60;;;;;;;14.24;100.00;97263.63;4775708;29;20323;-66
2023/09/08 01:52:20;;;;;;;6.30;5.87;;;;;;;14.19;100.00;97267.69;4898907;29;20220;-67
2023/09/08 01:54:47;;;;;;;6.80;6.00;;;;;;;14.15;100.00;97265.66;4897867;29;20283;-62
2023/09/08 01:57:15;;;;;;;6.30;5.90;;;;;;;14.06;100.00;97267.72;4902404;29;20308;-59
2023/09/08 01:59:44;;;;;;;6.43;5.90;;;;;;;14.00;100.00;97264.00;4894065;29;20272;-58
2023/09/08 02:02:12;;;;;;;6.93;6.43;;;;;;;13.96;100.00;97267.28;4900601;29;20208;-59
2023/09/08 02:04:40;;;;;;;6.93;6.40;;;;;;;13.89;100.00;97268.13;4896252;29;20229;-60
2023/09/08 02:07:08;;;;;;;7.83;7.23;;;;;;;13.82;100.00;97261.94;4895290;29;20248;-55
2023/09/08 02:09:36;;;;;;;7.70;7.10;;;;;;;13.67;100.00;97263.97;4898170;29;20732;-63
2023/09/08 02:12:05;;;;;;;7.67;7.07;;;;;;;13.59;100.00;97260.47;4899942;29;20204;-57
2023/09/08 02:14:32;;;;;;;7.60;7.00;;;;;;;13.58;100.00;97260.66;4897801;29;20295;-60
2023/09/08 02:17:02;;;;;;;7.63;7.00;;;;;;;13.54;100.00;97267.41;4897669;29;20300;-62
2023/09/08 02:19:29;;;;;;;8.43;7.63;;;;;;;13.50;100.00;97272.34;4896867;29;20304;-63
2023/09/08 02:21:57;;;;;;;8.00;7.20;;;;;;;13.40;100.00;97264.69;4902665;29;20623;-62
2023/09/08 02:24:25;;;;;;;7.43;6.83;;;;;;;13.35;100.00;97264.47;4776614;29;21104;-61
2023/09/08 02:26:54;;;;;;;7.80;7.30;;;;;;;13.25;100.00;97259.53;4905110;29;20469;-61
2023/09/08 02:29:22;;;;;;;7.67;7.10;;;;;;;13.21;100.00;97268.09;4900445;29;20780;-62
2023/09/08 02:31:50;;;;;;;7.80;7.00;;;;;;;13.17;100.00;97259.72;4902554;29;20212;-61
2023/09/08 02:34:19;;;;;;;7.50;7.00;;;;;;;13.18;100.00;97269.31;4901010;29;20263;-61
2023/09/08 02:36:47;;;;;;;7.60;7.00;;;;;;;13.13;100.00;97267.25;4903026;29;20227;-62
2023/09/08 02:39:14;;;;;;;8.13;7.43;;;;;;;13.07;100.00;97269.88;4900587;29;20209;-61
2023/09/08 02:41:42;;;;;;;8.27;7.63;;;;;;;13.00;100.00;97269.88;4903963;29;20213;-61
2023/09/08 02:44:09;;;;;;;8.00;7.30;;;;;;;12.98;100.00;97267.38;4899630;29;20291;-62
2023/09/08 02:46:37;;;;;;;7.93;7.30;;;;;;;12.99;100.00;97270.88;4905967;29;20470;-61
2023/09/08 02:49:05;;;;;;;7.57;7.07;;;;;;;12.95;100.00;97275.75;4900067;29;20343;-60
2023/09/08 02:51:34;;;;;;;8.67;7.83;;;;;;;12.91;100.00;97274.50;4905144;29;20243;-64
2023/09/08 02:54:02;;;;;;;8.33;7.63;;;;;;;12.86;100.00;97276.94;4801524;29;21898;-65
2023/09/08 02:56:29;;;;;;;7.90;7.30;;;;;;;12.88;100.00;97281.06;4890710;29;20208;-59
2023/09/08 02:58:57;;;;;;;8.17;7.53;;;;;;;12.84;100.00;97281.66;4899513;29;20522;-61
2023/09/08 03:01:25;;;;;;;7.73;7.20;;;;;;;12.83;100.00;97282.66;4907650;29;20196;-56
2023/09/08 03:03:52;;;;;;;9.23;8.50;;;;;;;12.75;100.00;97278.31;4899821;29;20298;-64
2023/09/08 03:06:21;;;;;;;8.67;8.07;;;;;;;12.67;100.00;97271.31;4903302;29;20269;-65
2023/09/08 03:08:50;;;;;;;8.23;7.40;;;;;;;12.72;100.00;97284.84;4898203;29;20212;-64
2023/09/08 03:11:18;;;;;;;8.07;7.47;;;;;;;12.67;100.00;97284.59;4900501;29;21680;-59
2023/09/08 03:13:45;;;;;;;8.50;7.23;;;;;;;12.67;100.00;97281.13;4899804;29;20243;-64
2023/09/08 03:16:13;;;;;;;8.60;7.90;;;;;;;12.59;100.00;97282.09;4902704;29;20542;-57
2023/09/08 03:18:41;;;;;;;8.47;7.80;;;;;;;12.63;100.00;97285.19;4897748;29;20792;-64
2023/09/08 03:21:11;;;;;;;8.07;7.33;;;;;;;12.59;100.00;97268.81;4900978;29;20308;-56
2023/09/08 03:23:40;;;;;;;8.17;7.47;;;;;;;12.54;100.00;97268.56;4866595;29;20254;-65
2023/09/08 03:26:10;;;;;;;7.63;7.03;;;;;;;12.62;100.00;97276.38;4831211;29;20221;-56
2023/09/08 03:28:39;;;;;;;8.07;7.47;;;;;;;12.62;100.00;97278.25;4901043;29;20756;-61
2023/09/08 03:31:07;;;;;;;7.57;6.90;;;;;;;12.53;100.00;97281.06;4901105;29;20204;-57
2023/09/08 03:33:34;;;;;;;9.63;7.07;;;;;;;12.53;100.00;97280.22;4903036;29;20615;-64
2023/09/08 03:36:03;;;;;;;7.23;6.73;;;;;;;12.50;100.00;97275.28;4900038;29;20217;-62
2023/09/08 03:38:30;;;;;;;7.93;7.27;;;;;;;12.49;100.00;97278.97;4899931;29;20208;-57
2023/09/08 03:40:58;;;;;;;7.80;7.10;;;;;;;12.46;100.00;97280.16;4899339;29;20223;-63
2023/09/08 03:43:27;;;;;;;8.27;7.67;;;;;;;12.37;100.00;97274.19;4904312;29;20239;-66
2023/09/08 03:45:54;;;;;;;12.20;7.63;;;;;;;12.36;100.00;97275.22;4898059;29;20880;-58
2023/09/08 03:48:22;;;;;;;8.00;7.50;;;;;;;12.31;100.00;97272.28;4903238;29;20871;-58
2023/09/08 03:50:50;;;;;;;6.60;6.20;;;;;;;12.38;100.00;97278.50;4897931;29;20236;-62
2023/09/08 03:53:17;;;;;;;7.87;7.17;;;;;;;12.38;100.00;97283.81;4904132;29;20228;-63
2023/09/08 03:55:45;;;;;;;7.60;7.00;;;;;;;12.34;100.00;97269.28;4778863;29;20223;-67
2023/09/08 03:58:13;;;;;;;8.60;7.97;;;;;;;12.33;100.00;97272.94;4899580;29;20838;-59
2023/09/08 04:00:42;;;;;;;7.77;7.07;;;;;;;12.32;100.00;97273.13;4894651;29;20208;-66
2023/09/08 04:03:10;;;;;;;9.27;7.33;;;;;;;12.41;100.00;97271.94;4846462;29;20620;-66
2023/09/08 04:05:37;;;;;;;7.93;7.33;;;;;;;12.45;100.00;97268.72;4902746;29;20236;-61
2023/09/08 04:08:06;;;;;;;6.80;6.30;;;;;;;12.45;100.00;97274.03;4897973;29;20217;-60
2023/09/08 04:10:33;;;;;;;8.00;7.47;;;;;;;12.48;100.00;97275.47;4901427;29;20566;-64
2023/09/08 04:13:01;;;;;;;7.40;6.80;;;;;;;12.54;100.00;97264.09;4858706;29;20807;-63
2023/09/08 04:15:29;;;;;;;7.33;6.83;;;;;;;12.52;100.00;97275.91;4904215;29;20252;-60
2023/09/08 04:17:58;;;;;;;7.30;6.60;;;;;;;12.49;100.00;97279.78;4897636;29;20236;-65
2023/09/08 04:20:25;;;;;;;7.67;6.87;;;;;;;12.41;100.00;97271.94;4902501;29;20279;-60
2023/09/08 04:22:53;;;;;;;7.73;7.00;;;;;;;12.40;100.00;97281.78;4896934;29;20424;-60
2023/09/08 04:25:21;;;;;;;7.97;7.37;;;;;;;12.35;100.00;97278.03;4897881;29;20228;-64
2023/09/08 04:27:49;;;;;;;7.47;6.93;;;;;;;12.27;100.00;97281.66;4778944;29;20239;-61
2023/09/08 04:30:18;;;;;;;7.53;6.93;;;;;;;12.22;100.00;97286.72;4896400;29;20219;-61
2023/09/08 04:32:46;;;;;;;8.33;7.53;;;;;;;12.16;100.00;97291.00;4894425;29;20319;-64
2023/09/08 04:35:15;;;;;;;7.50;6.87;;;;;;;12.06;100.00;97280.69;4897512;29;20291;-62
2023/09/08 04:37:42;;;;;;;8.73;7.93;;;;;;;12.07;100.00;97290.28;4892297;29;20740;-61
2023/09/08 04:40:11;;;;;;;8.80;8.10;;;;;;;12.05;100.00;97288.81;4898119;29;20215;-59
2023/09/08 04:42:38;;;;;;;8.63;7.93;;;;;;;12.04;100.00;97289.84;4894372;29;20772;-63
2023/09/08 04:45:07;;;;;;;9.47;8.77;;;;;;;12.00;100.00;97294.69;4895374;29;20239;-58
2023/09/08 04:47:34;;;;;;;8.90;8.20;;;;;;;12.00;100.00;97294.69;4857045;29;20211;-59
2023/09/08 04:50:02;;;;;;;9.33;8.30;;;;;;;12.01;100.00;97299.84;4901751;29;20346;-53
2023/09/08 04:52:31;;;;;;;8.50;7.77;;;;;;;12.01;100.00;97307.00;4898968;29;20250;-56
2023/09/08 04:54:59;;;;;;;8.73;8.03;;;;;;;12.01;100.00;97312.31;4896484;29;20308;-59
2023/09/08 04:57:26;;;;;;;9.07;8.27;;;;;;;12.06;100.00;97304.59;4897491;29;20243;-60
2023/09/08 04:59:54;;;;;;;8.60;7.90;;;;;;;12.04;100.00;97311.91;4898415;29;20235;-54
2023/09/08 05:02:22;;;;;;;9.27;8.57;;;;;;;12.11;100.00;97314.63;4779316;29;20224;-64
2023/09/08 05:04:50;;;;;;;9.73;9.03;;;;;;;12.10;100.00;97318.28;4899621;29;20263;-60
2023/09/08 05:07:18;;;;;;;9.70;8.90;;;;;;;12.13;100.00;97318.75;4853822;29;20209;-61
2023/09/08 05:09:47;;;;;;;10.50;9.43;;;;;;;12.14;100.00;97327.53;4839341;29;20917;-59
2023/09/08 05:12:15;;;;;;;11.87;10.93;;;;;;;12.16;100.00;97330.84;4899973;29;20239;-66
2023/09/08 05:14:43;;;;;;;12.03;11.10;;;;;;;12.21;100.00;97322.28;4897537;29;20272;-63
2023/09/08 05:17:10;;;;;;;13.30;12.20;;;;;;;12.24;100.00;97325.38;4900610;29;20677;-56
2023/09/08 05:19:38;;;;;;;11.87;10.97;;;;;;;12.26;100.00;97323.34;4858546;29;20267;-61
2023/09/08 05:22:06;;;;;;;11.80;10.90;;;;;;;12.31;100.00;97328.06;4901254;29;20240;-62
2023/09/08 05:24:33;;;;;;;11.53;10.53;;;;;;;12.36;100.00;97319.53;4895720;29;20220;-59
2023/09/08 05:27:03;;;;;;;11.10;10.20;;;;;;;12.42;100.00;97321.41;4901929;29;20208;-63
2023/09/08 05:29:30;;;;;;;12.07;10.97;;;;;;;12.51;100.00;97330.09;4896692;29;20260;-60
2023/09/08 05:31:58;;;;;;;12.77;9.27;;;;;;;12.56;100.00;97327.66;4901669;29;20830;-66
2023/09/08 05:34:25;;;;;;;11.37;10.43;;;;;;;12.61;100.00;97327.09;4786956;29;20315;-64
2023/09/08 05:36:53;;;;;;;9.93;9.20;;;;;;;12.74;100.00;97328.03;4901675;29;20303;-60
2023/09/08 05:39:21;;;;;;;11.20;10.30;;;;;;;12.90;100.00;97333.22;4869504;29;20664;-59
2023/09/08 05:41:48;;;;;;;11.50;10.40;;;;;;;12.92;100.00;97321.38;4901167;29;20707;-66
2023/09/08 05:44:17;;;;;;;9.73;8.87;;;;;;;13.16;100.00;97324.56;4896463;29;20299;-63
2023/09/08 05:46:45;;;;;;;11.23;10.13;;;;;;;13.31;100.00;97321.78;4900126;29;20250;-60
2023/09/08 05:49:14;;;;;;;8.97;8.27;;;;;;;13.45;100.00;97320.84;4851323;29;20582;-57
2023/09/08 05:51:41;;;;;;;9.60;8.90;;;;;;;13.59;100.00;97327.03;4898421;29;21665;-63
2023/09/08 05:54:09;;;;;;;9.93;9.13;;;;;;;13.65;100.00;97324.59;4896321;29;21095;-58
2023/09/08 05:56:37;;;;;;;11.23;10.07;;;;;;;13.74;100.00;97318.06;4904382;29;20588;-63
2023/09/08 05:59:05;;;;;;;9.37;8.60;;;;;;;13.89;100.00;97317.88;4898411;29;20834;-60
2023/09/08 06:01:34;;;;;;;9.87;8.87;;;;;;;14.00;100.00;97322.59;4905499;29;20203;-59
2023/09/08 06:04:02;;;;;;;9.33;8.53;;;;;;;14.15;100.00;97319.75;4785038;29;22078;-62
2023/09/08 06:06:30;;;;;;;8.90;8.10;;;;;;;14.28;100.00;97316.28;4903703;29;20315;-60
2023/09/08 06:08:57;;;;;;;9.63;8.80;;;;;;;14.43;100.00;97318.75;4901159;29;20468;-63
2023/09/08 06:11:25;;;;;;;8.60;7.90;;;;;;;14.60;100.00;97310.34;4905972;29;20212;-63
2023/09/08 06:13:55;;;;;;;8.30;7.60;;;;;;;14.82;100.00;97307.47;4898144;29;20263;-64
2023/09/08 06:16:22;;;;;;;11.17;7.70;;;;;;;15.02;100.00;97310.94;4906764;29;20216;-60
2023/09/08 06:18:51;;;;;;;8.47;7.73;;;;;;;15.10;100.00;97306.38;4902433;29;20214;-66
2023/09/08 06:21:19;;;;;;;8.40;7.60;;;;;;;15.24;100.00;97302.63;4904333;29;20212;-61
2023/09/08 06:23:47;;;;;;;8.40;7.70;;;;;;;15.35;100.00;97295.81;4859843;29;20351;-65
2023/09/08 06:26:15;;;;;;;7.57;6.87;;;;;;;15.34;100.00;97303.03;4898249;29;20224;-59
2023/09/08 06:28:43;;;;;;;7.70;7.00;;;;;;;15.49;100.00;97302.72;4900996;29;20311;-64
2023/09/08 06:31:11;;;;;;;8.17;7.37;;;;;;;15.66;100.00;97306.75;4898951;29;20240;-63
2023/09/08 06:33:39;;;;;;;7.70;7.10;;;;;;;15.78;100.00;97302.41;4900467;29;20224;-67
2023/09/08 06:36:08;;;;;;;7.17;6.67;;;;;;;15.91;100.00;97312.22;4899038;29;20205;-62
2023/09/08 06:38:36;;;;;;;8.90;8.00;;;;;;;16.03;100.00;97301.63;4824022;29;20221;-65
2023/09/08 06:41:09;;;;;;;8.00;7.27;;;;;;;16.01;100.00;97306.38;4868709;29;20220;-61
2023/09/08 06:43:37;;;;;;;8.13;7.53;;;;;;;16.03;100.00;97297.13;4902089;29;20225;-66
2023/09/08 06:46:05;;;;;;;8.17;7.53;;;;;;;16.17;100.00;97303.19;4899247;29;20228;-61
2023/09/08 06:48:33;;;;;;;8.00;7.40;;;;;;;16.23;100.00;97308.72;4902753;29;20204;-64
2023/09/08 06:51:01;;;;;;;8.33;7.37;;;;;;;16.33;100.00;97304.53;4898996;29;20211;-63
2023/09/08 06:53:30;;;;;;;9.50;7.40;;;;;;;16.38;100.00;97301.16;4880678;29;20916;-61
2023/09/08 06:55:58;;;;;;;7.00;6.50;;;;;;;16.54;100.00;97313.19;4879141;29;20693;-63
2023/09/08 06:58:26;;;;;;;7.63;6.93;;;;;;;16.78;100.00;97303.47;4899365;29;20231;-64
2023/09/08 07:00:54;;;;;;;7.57;6.93;;;;;;;17.02;100.00;97308.22;4899986;29;20216;-65
2023/09/08 07:03:22;;;;;;;7.37;6.67;;;;;;;17.15;100.00;97307.25;4898925;29;20224;-65
2023/09/08 07:05:51;;;;;;;7.47;6.80;;;;;;;17.35;100.00;97302.50;4898771;29;20255;-61
2023/09/08 07:08:22;;;;;;;7.53;6.50;;;;;;;17.52;100.00;97296.50;4869901;29;20204;-65
2023/09/08 07:10:54;;;;;;;6.57;6.07;;;;;;;17.70;100.00;97302.91;4832829;29;20224;-66
2023/09/08 07:13:22;;;;;;;6.97;6.47;;;;;;;17.74;100.00;97302.19;4899863;29;20228;-65
2023/09/08 07:15:49;;;;;;;6.23;5.67;;;;;;;17.90;100.00;97316.00;4900156;29;20217;-61
2023/09/08 07:18:17;;;;;;;6.20;5.80;;;;;;;17.94;100.00;97309.94;4902508;29;20232;-65
2023/09/08 07:20:47;;;;;;;6.40;5.90;;;;;;;18.12;100.00;97310.16;4901238;29;20259;-63
2023/09/08 07:23:16;;;;;;;6.67;6.00;;;;;;;18.21;100.00;97309.59;4893417;29;20228;-65
2023/09/08 07:25:46;;;;;;;6.40;6.00;;;;;;;18.24;100.00;97305.66;4858695;29;1201862;-58
2023/09/08 07:28:15;;;;;;;6.40;5.80;;;;;;;18.48;100.00;97309.19;4896688;29;20201;-67
2023/09/08 07:30:43;;;;;;;6.97;6.30;;;;;;;18.59;100.00;97301.34;4863655;29;20209;-58
2023/09/08 07:33:11;;;;;;;5.60;5.20;;;;;;;18.87;100.00;97305.22;4899070;29;20866;-60
2023/09/08 07:35:40;;;;;;;5.50;5.00;;;;;;;18.93;100.00;97298.91;4898943;29;20212;-65
2023/09/08 07:38:08;;;;;;;5.87;5.30;;;;;;;19.03;100.00;97293.78;4899577;29;20260;-65
2023/09/08 07:40:36;;;;;;;5.03;4.73;;;;;;;19.07;100.00;97303.00;4797423;29;20248;-62
2023/09/08 07:43:04;;;;;;;6.07;5.57;;;;;;;19.22;100.00;97307.06;4898034;29;20319;-62
2023/09/08 07:45:33;;;;;;;6.07;5.67;;;;;;;19.27;100.00;97309.03;4902162;29;20284;-65
2023/09/08 07:48:01;;;;;;;5.90;5.50;;;;;;;19.24;100.00;97307.66;4901487;29;20594;-64
2023/09/08 07:50:31;;;;;;;6.57;5.93;;;;;;;19.34;100.00;97299.78;4898977;29;20215;-65
2023/09/08 07:52:58;;;;;;;6.43;5.93;;;;;;;19.47;100.00;97303.25;4903482;29;21021;-66
2023/09/08 07:55:28;;;;;;;5.60;5.20;;;;;;;19.55;100.00;97310.13;4897366;29;20859;-59
2023/09/08 07:57:57;;;;;;;5.57;5.17;;;;;;;19.62;100.00;97290.13;4902530;29;20287;-58
2023/09/08 08:00:25;;;;;;;5.97;5.43;;;;;;;19.81;100.00;97297.97;4853123;29;20989;-64
2023/09/08 08:02:55;;;;;;;5.43;4.97;;;;;;;19.95;100.00;97301.22;4901226;29;20315;-63
2023/09/08 08:05:23;;;;;;;5.87;5.27;;;;;;;20.01;100.00;97304.81;4897291;29;20215;-61
2023/09/08 08:07:51;;;;;;;5.67;5.27;;;;;;;20.08;100.00;97305.47;4902374;29;20223;-61
2023/09/08 08:10:19;;;;;;;6.77;5.20;;;;;;;20.11;100.00;97296.91;4779373;29;20255;-60
2023/09/08 08:12:46;;;;;;;5.80;5.40;;;;;;;20.19;100.00;97299.22;4901863;29;20220;-66
2023/09/08 08:15:14;;;;;;;6.00;5.40;;;;;;;20.13;100.00;97302.88;4900609;29;20234;-62
2023/09/08 08:17:42;;;;;;;5.23;4.83;;;;;;;20.16;100.00;97307.75;4901792;29;20632;-62
2023/09/08 08:20:17;;;;;;;5.13;4.57;;;;;;;20.30;100.00;97299.41;4898826;29;20700;-62
2023/09/08 08:22:45;;;;;;;5.23;4.83;;;;;;;20.31;100.00;97299.13;4903862;29;20228;-57
2023/09/08 08:25:14;;;;;;;5.37;5.03;;;;;;;20.56;100.00;97294.41;4900057;29;20543;-58
2023/09/08 08:27:41;;;;;;;5.67;5.17;;;;;;;20.61;100.00;97299.84;4905095;29;20744;-59
2023/09/08 08:30:11;;;;;;;5.23;4.93;;;;;;;20.70;100.00;97290.31;4851943;29;20212;-58
2023/09/08 08:32:39;;;;;;;6.13;5.53;;;;;;;20.89;100.00;97295.44;4900055;29;20228;-61
2023/09/08 08:35:07;;;;;;;5.87;5.10;;;;;;;20.96;100.00;97290.69;4897802;29;20267;-65
2023/09/08 08:37:36;;;;;;;5.97;5.27;;;;;;;20.94;100.00;97285.56;4901097;29;20208;-61
2023/09/08 08:40:05;;;;;;;6.10;4.53;;;;;;;21.13;100.00;97290.66;4782134;29;20223;-58
2023/09/08 08:42:33;;;;;;;5.90;5.30;;;;;;;21.10;100.00;97291.16;4900435;29;20283;-60
2023/09/08 08:45:01;;;;;;;5.47;4.70;;;;;;;21.21;100.00;97281.31;4899770;29;21455;-61
2023/09/08 08:47:29;;;;;;;5.70;5.30;;;;;;;21.24;100.00;97278.97;4900789;29;20223;-63
2023/09/08 08:49:59;;;;;;;5.53;5.13;;;;;;;21.28;100.00;97273.06;4901485;29;20263;-61
2023/09/08 08:52:27;;;;;;;6.17;5.57;;;;;;;21.38;100.00;97282.06;4902552;29;20251;-62
2023/09/08 08:54:57;;;;;;;7.23;5.00;;;;;;;21.48;100.00;97285.97;4893852;29;20769;-63
2023/09/08 08:57:27;;;;;;;5.60;5.20;;;;;;;21.57;100.00;97292.53;4900503;29;20219;-60
2023/09/08 08:59:55;;;;;;;5.50;5.07;;;;;;;21.54;100.00;97284.94;4894878;29;20208;-60
2023/09/08 09:02:23;;;;;;;6.20;5.77;;;;;;;21.52;100.00;97287.09;4898401;29;20228;-60
2023/09/08 09:04:52;;;;;;;5.90;5.30;;;;;;;21.58;100.00;97282.53;4898742;29;20248;-62
2023/09/08 09:07:19;;;;;;;5.43;4.97;;;;;;;21.53;100.00;97286.00;4901321;29;20232;-64
2023/09/08 09:09:47;;;;;;;6.60;5.63;;;;;;;21.56;100.00;97288.19;4897637;29;20219;-61
2023/09/08 09:12:17;;;;;;;6.53;6.00;;;;;;;21.59;100.00;97276.09;4900328;29;20209;-62
2023/09/08 09:14:48;;;;;;;5.77;5.37;;;;;;;21.60;100.00;97286.63;4775598;29;20869;-57
2023/09/08 09:17:16;;;;;;;6.23;5.73;;;;;;;21.56;100.00;97282.81;4898067;29;20206;-66
2023/09/08 09:19:43;;;;;;;5.80;5.47;;;;;;;21.68;100.00;97275.41;4900521;29;20288;-61
2023/09/08 09:22:11;;;;;;;5.70;5.30;;;;;;;21.78;100.00;97279.28;4900482;29;20317;-63
2023/09/08 09:24:40;;;;;;;5.23;4.93;;;;;;;21.85;100.00;97274.53;4899633;29;20234;-58
2023/09/08 09:27:09;;;;;;;5.57;5.10;;;;;;;22.00;100.00;97281.13;4899225;29;20236;-58
2023/09/08 09:29:45;;;;;;;6.27;5.77;;;;;;;22.05;100.00;97284.69;4899582;29;20204;-59
2023/09/08 09:32:13;;;;;;;5.93;5.53;;;;;;;22.11;100.00;97280.13;4899354;29;20654;-62
2023/09/08 09:34:49;;;;;;;5.60;5.20;;;;;;;22.19;100.00;97285.06;4898719;29;20219;-57
2023/09/08 09:37:17;;;;;;;5.70;5.23;;;;;;;22.21;100.00;97261.34;4898087;29;20729;-64
2023/09/08 09:39:49;;;;;;;5.63;5.13;;;;;;;22.28;100.00;97280.00;4897451;29;20232;-59
2023/09/08 09:42:17;;;;;;;6.70;6.20;;;;;;;22.30;100.00;97275.16;4898886;29;20943;-62
2023/09/08 09:44:47;;;;;;;8.40;5.50;;;;;;;22.42;100.00;97274.97;4778958;29;20241;-60
2023/09/08 09:47:16;;;;;;;6.63;6.13;;;;;;;22.52;97.66;97280.47;4896977;29;20228;-59
2023/09/08 09:49:44;;;;;;;6.03;5.53;;;;;;;22.58;94.31;97281.34;4898792;29;20210;-63
2023/09/08 09:52:13;;;;;;;5.63;5.00;;;;;;;22.66;96.96;97277.34;4899337;29;20823;-62
2023/09/08 09:54:42;;;;;;;6.07;5.50;;;;;;;22.65;97.79;97271.13;4898422;29;20244;-60
2023/09/08 09:57:13;;;;;;;5.60;5.20;;;;;;;22.77;97.98;97273.63;4899868;29;20216;-60
2023/09/08 09:59:42;;;;;;;6.10;5.60;;;;;;;22.82;94.54;97278.25;4900166;29;20216;-60
2023/09/08 10:02:13;;;;;;;5.50;5.10;;;;;;;22.74;93.36;97268.75;4897761;29;20673;-64
2023/09/08 10:04:41;;;;;;;5.10;4.80;;;;;;;22.78;95.27;97269.06;4898291;29;20846;-63
2023/09/08 10:07:10;;;;;;;5.43;5.03;;;;;;;22.77;97.45;97270.13;4900542;29;20220;-62
2023/09/08 10:09:37;;;;;;;6.03;5.43;;;;;;;22.88;95.50;97270.97;4897824;29;20558;-63
2023/09/08 10:12:06;;;;;;;5.53;5.13;;;;;;;23.06;96.14;97265.16;4895978;29;20205;-58
2023/09/08 10:14:36;;;;;;;6.07;5.60;;;;;;;23.06;93.00;97275.94;4841238;29;20216;-56
2023/09/08 10:17:06;;;;;;;5.00;4.63;;;;;;;22.84;92.51;97268.81;4902945;29;20256;-61
2023/09/08 10:19:41;;;;;;;6.67;5.07;;;;;;;23.11;97.34;97267.06;4774152;29;20248;-61
2023/09/08 10:22:13;;;;;;;5.13;4.83;;;;;;;23.31;96.20;97263.66;4900672;29;20216;-67
2023/09/08 10:24:41;;;;;;;5.87;5.47;;;;;;;23.31;93.02;97262.84;4898091;29;20212;-65
2023/09/08 10:27:11;;;;;;;7.10;5.27;;;;;;;23.37;93.18;97257.19;4902469;29;20232;-63
2023/09/08 10:29:39;;;;;;;6.37;5.73;;;;;;;23.39;89.83;97256.91;4895190;29;20228;-67
2023/09/08 10:32:08;;;;;;;5.80;5.40;;;;;;;23.31;90.69;97252.84;4901139;29;20212;-64
2023/09/08 10:34:38;;;;;;;5.87;5.37;;;;;;;23.30;92.65;97253.09;4897748;29;20236;-65
2023/09/08 10:37:20;;;;;;;6.00;5.60;;;;;;;23.33;91.95;97248.00;4902050;29;20617;-59
2023/09/08 10:39:48;;;;;;;5.60;5.27;;;;;;;23.53;91.21;97251.81;4897367;29;20307;-62
2023/09/08 10:42:25;;;;;;;5.43;5.03;;;;;;;23.56;87.06;97251.28;4903627;29;20307;-65
2023/09/08 10:44:57;;;;;;;6.27;5.67;;;;;;;23.65;87.87;97244.25;4901009;29;20223;-64
2023/09/08 10:47:26;;;;;;;6.37;5.77;;;;;;;23.44;88.69;97251.50;4899285;29;20287;-64
2023/09/08 10:49:58;;;;;;;5.70;5.20;;;;;;;23.52;88.37;97245.63;4782102;29;20351;-60
2023/09/08 10:52:28;;;;;;;5.70;5.30;;;;;;;23.66;89.19;97243.19;4905252;29;20361;-59
2023/09/08 10:54:56;;;;;;;5.77;5.33;;;;;;;23.84;86.28;97241.06;4900558;29;20267;-62
2023/09/08 10:57:25;;;;;;;6.03;5.43;;;;;;;23.90;86.58;97233.78;4901733;29;20329;-65
2023/09/08 10:59:53;;;;;;;5.77;5.30;;;;;;;24.02;87.31;97231.63;4901561;29;20216;-61
2023/09/08 11:02:37;;;;;;;5.37;5.07;;;;;;;23.99;81.97;97237.56;4903073;29;20283;-60
2023/09/08 11:05:09;;;;;;;5.77;5.27;;;;;;;23.89;83.32;97227.53;4900276;29;20213;-58
2023/09/08 11:07:37;;;;;;;5.20;4.80;;;;;;;23.96;82.07;97225.38;4900279;29;20311;-65
2023/09/08 11:10:07;;;;;;;5.60;5.20;;;;;;;23.97;77.24;97231.59;4901687;29;20232;-57
2023/09/08 11:12:35;;;;;;;5.70;5.10;;;;;;;24.16;86.04;97228.38;4903277;29;20325;-64
2023/09/08 11:15:05;;;;;;;4.60;4.30;;;;;;;24.20;69.81;97226.75;4900268;29;20208;-58
2023/09/08 11:17:34;;;;;;;7.10;5.50;;;;;;;24.34;67.82;97227.00;4826797;29;20834;-61
2023/09/08 11:20:08;;;;;;;5.53;5.03;;;;;;;24.51;71.39;97224.84;4865922;29;20208;-62
2023/09/08 11:22:39;;;;;;;6.33;4.50;;;;;;;24.70;69.12;97221.53;4846980;29;20283;-66
2023/09/08 11:25:08;;;;;;;5.13;3.93;;;;;;;24.67;64.54;97224.78;4849902;29;20220;-62
2023/09/08 11:27:36;;;;;;;5.20;4.70;;;;;;;24.66;66.64;97221.28;4882255;29;20259;-67
2023/09/08 11:30:05;;;;;;;5.67;5.13;;;;;;;24.78;67.46;97226.41;4874984;29;20809;-60
2023/09/08 11:32:33;;;;;;;5.30;4.80;;;;;;;24.84;68.92;97221.78;4887747;29;20308;-67